Time;durP1;ratioP1;P1;durP2;ratioP2;P2;SDS_P1;SDS_P2;PMS_P1;PMS_P2;Temp;Humidity;BMP_temperature;BMP_pressure;BME280_temperature;BME280_humidity;BME280_pressure;Samples;Min_cycle;Max_cycle;Signal;HPM_P1;HPM_P2
2024/01/04 00:01:34;;;;;;;29.07;7.40;;;11.50;99.90;;;;;;7278315;19;20188;-89
2024/01/04 00:04:00;;;;;;;15.33;2.80;;;11.40;99.90;;;;;;7274499;19;20580;-88
2024/01/04 00:06:26;;;;;;;16.37;2.43;;;11.40;99.90;;;;;;7276726;19;20198;-86
2024/01/04 00:08:51;;;;;;;21.10;3.23;;;11.40;99.90;;;;;;7278808;19;20188;-87
2024/01/04 00:11:17;;;;;;;20.40;2.33;;;11.30;99.90;;;;;;7298962;19;20213;-85
2024/01/04 00:13:43;;;;;;;23.13;3.70;;;11.30;99.90;;;;;;7278891;19;20188;-88
2024/01/04 00:16:13;;;;;;;21.43;3.50;;;11.30;99.90;;;;;;7278296;19;20181;-88
2024/01/04 00:18:39;;;;;;;19.90;2.80;;;11.40;99.90;;;;;;7276140;19;20193;-89
2024/01/04 00:21:05;;;;;;;21.23;3.03;;;11.40;99.90;;;;;;7277573;19;20191;-88
2024/01/04 00:23:32;;;;;;;22.13;4.20;;;11.40;99.90;;;;;;7274708;19;20195;-88
2024/01/04 00:25:58;;;;;;;15.50;2.80;;;11.50;99.90;;;;;;7276615;19;20192;-88
2024/01/04 00:28:24;;;;;;;23.27;4.28;;;11.30;99.90;;;;;;7131073;19;2849619;-87
2024/01/04 00:30:49;;;;;;;23.00;3.40;;;11.30;99.90;;;;;;7278742;19;20687;-88
2024/01/04 00:33:15;;;;;;;16.13;2.90;;;11.30;99.90;;;;;;7301490;19;20183;-87
2024/01/04 00:35:41;;;;;;;21.77;2.90;;;11.30;99.90;;;;;;7276959;19;20208;-87
2024/01/04 00:38:10;;;;;;;19.00;2.60;;;11.30;99.90;;;;;;7279460;19;20196;-88
2024/01/04 00:40:39;;;;;;;19.67;3.37;;;11.30;99.90;;;;;;7285895;19;20199;-88
2024/01/04 00:43:05;;;;;;;13.03;2.40;;;11.40;99.90;;;;;;7284806;19;20193;-88
2024/01/04 00:45:31;;;;;;;16.23;3.07;;;11.40;99.90;;;;;;7277721;19;20216;-89
2024/01/04 00:47:57;;;;;;;16.37;2.40;;;11.30;99.90;;;;;;7278921;19;20662;-88
2024/01/04 00:50:22;;;;;;;14.27;2.60;;;11.30;99.90;;;;;;7278536;19;20607;-89
2024/01/04 00:52:48;;;;;;;16.20;2.53;;;11.30;99.90;;;;;;7289805;19;20661;-83
2024/01/04 00:55:14;;;;;;;12.67;2.23;;;11.30;99.90;;;;;;7294878;19;20674;-83
2024/01/04 00:57:40;;;;;;;17.87;2.57;;;11.20;99.90;;;;;;7276750;19;20587;-83
2024/01/04 01:00:06;;;;;;;13.90;2.57;;;11.20;99.90;;;;;;7276215;19;20568;-83
2024/01/04 01:02:35;;;;;;;21.33;2.63;;;11.20;99.90;;;;;;7277748;19;20215;-83
2024/01/04 01:05:01;;;;;;;18.67;2.73;;;11.30;99.90;;;;;;7275362;19;20270;-83
2024/01/04 01:07:28;;;;;;;20.00;2.57;;;11.20;99.90;;;;;;7276286;19;20191;-83
2024/01/04 01:09:53;;;;;;;13.73;2.17;;;11.20;99.90;;;;;;7276034;19;20208;-83
2024/01/04 01:12:19;;;;;;;12.20;2.13;;;11.20;99.90;;;;;;7278758;19;20198;-83
2024/01/04 01:14:45;;;;;;;15.17;2.10;;;11.10;99.90;;;;;;7304272;19;20731;-83
2024/01/04 01:17:11;;;;;;;13.30;2.30;;;11.20;99.90;;;;;;7281221;19;20188;-82
2024/01/04 01:19:37;;;;;;;9.40;1.93;;;11.20;99.90;;;;;;7282013;19;20514;-83
2024/01/04 01:22:03;;;;;;;14.47;2.27;;;11.20;99.90;;;;;;7282968;19;20639;-83
2024/01/04 01:24:29;;;;;;;8.97;1.80;;;11.20;99.90;;;;;;7282419;19;20268;-83
2024/01/04 01:26:55;;;;;;;14.27;2.23;;;11.20;99.90;;;;;;7283603;19;20609;-83
2024/01/04 01:29:20;;;;;;;16.53;2.10;;;11.30;99.90;;;;;;7283473;19;20303;-83
2024/01/04 01:31:46;;;;;;;12.60;1.73;;;11.30;99.90;;;;;;7303891;19;20255;-83
2024/01/04 01:34:12;;;;;;;14.47;2.13;;;11.30;99.90;;;;;;7282935;19;20182;-83
2024/01/04 01:36:41;;;;;;;14.33;2.17;;;11.20;99.90;;;;;;7283084;19;20201;-82
2024/01/04 01:39:08;;;;;;;14.03;2.00;;;11.10;99.90;;;;;;7282508;19;20211;-82
2024/01/04 01:41:34;;;;;;;13.30;2.70;;;11.10;99.90;;;;;;7283661;19;20192;-82
2024/01/04 01:44:00;;;;;;;16.83;2.10;;;11.10;99.90;;;;;;7280434;19;20202;-82
2024/01/04 01:46:26;;;;;;;11.67;2.13;;;11.00;99.90;;;;;;7281978;19;20198;-82
2024/01/04 01:48:52;;;;;;;13.20;2.20;;;11.00;99.90;;;;;;7285706;19;20600;-82
2024/01/04 01:51:17;;;;;;;12.77;2.33;;;10.90;99.90;;;;;;7308641;19;20200;-82
2024/01/04 01:53:44;;;;;;;11.17;2.30;;;10.90;99.90;;;;;;7286960;19;20193;-83
2024/01/04 01:56:10;;;;;;;12.03;2.53;;;10.90;99.90;;;;;;7282042;19;20724;-82
2024/01/04 01:58:37;;;;;;;12.60;2.10;;;10.90;99.90;;;;;;7281125;19;20188;-82
2024/01/04 02:01:03;;;;;;;13.87;2.30;;;11.00;99.90;;;;;;7282614;19;20203;-82
2024/01/04 02:03:29;;;;;;;7.77;1.70;;;11.00;99.90;;;;;;7282528;19;20194;-83
2024/01/04 02:05:54;;;;;;;15.67;2.10;;;11.00;99.90;;;;;;7281275;19;20663;-83
2024/01/04 02:08:20;;;;;;;11.00;2.10;;;11.00;99.90;;;;;;7282101;19;20190;-83
2024/01/04 02:10:47;;;;;;;11.17;1.67;;;11.00;99.90;;;;;;7302349;19;20194;-83
2024/01/04 02:13:13;;;;;;;11.70;2.13;;;11.00;99.90;;;;;;7281990;19;20186;-83
2024/01/04 02:15:38;;;;;;;9.07;1.60;;;11.00;99.90;;;;;;7280712;19;20204;-83
2024/01/04 02:18:04;;;;;;;12.73;1.83;;;10.90;99.90;;;;;;7282743;19;20662;-84
2024/01/04 02:20:30;;;;;;;16.03;2.37;;;10.90;99.90;;;;;;7281592;19;20202;-83
2024/01/04 02:22:56;;;;;;;13.17;2.03;;;10.90;99.90;;;;;;7281903;19;20271;-83
2024/01/04 02:25:22;;;;;;;11.50;1.90;;;10.90;99.90;;;;;;7278702;19;20198;-83
2024/01/04 02:27:47;;;;;;;10.07;1.83;;;10.90;99.90;;;;;;7303780;19;20726;-83
2024/01/04 02:30:13;;;;;;;11.63;2.00;;;11.00;99.90;;;;;;7281259;19;20644;-83
2024/01/04 02:32:39;;;;;;;11.23;1.80;;;10.90;99.90;;;;;;7280106;19;20694;-83
2024/01/04 02:35:05;;;;;;;16.30;2.10;;;10.90;99.90;;;;;;7281683;19;20191;-82
2024/01/04 02:37:31;;;;;;;8.40;1.63;;;10.90;99.90;;;;;;7280646;19;20226;-82
2024/01/04 02:39:57;;;;;;;17.03;2.40;;;11.00;99.90;;;;;;7282236;19;20208;-82
2024/01/04 02:42:23;;;;;;;12.37;1.87;;;11.00;99.90;;;;;;7282113;19;20199;-82
2024/01/04 02:44:49;;;;;;;12.20;2.07;;;11.00;99.90;;;;;;7290115;19;20199;-83
2024/01/04 02:47:14;;;;;;;8.97;1.70;;;11.00;99.90;;;;;;7302876;19;20187;-83
2024/01/04 02:49:47;;;;;;;11.63;1.90;;;11.10;99.90;;;;;;7281346;19;20197;-82
2024/01/04 02:52:13;;;;;;;8.87;2.10;;;11.20;99.90;;;;;;7283957;19;20185;-87
2024/01/04 02:54:39;;;;;;;8.47;2.10;;;11.20;99.90;;;;;;7283284;19;20182;-89
2024/01/04 02:57:05;;;;;;;12.00;1.80;;;11.10;99.90;;;;;;7282207;19;20645;-89
2024/01/04 02:59:31;;;;;;;10.00;2.30;;;11.10;99.90;;;;;;7282130;19;20277;-89
2024/01/04 03:01:57;;;;;;;13.30;2.10;;;11.10;99.90;;;;;;7282180;19;20559;-89
2024/01/04 03:04:26;;;;;;;11.57;2.63;;;11.10;99.90;;;;;;7283692;19;20192;-89
2024/01/04 03:06:51;;;;;;;13.60;2.40;;;11.20;99.90;;;;;;7283250;19;20188;-89
2024/01/04 03:09:17;;;;;;;12.60;3.20;;;11.20;99.90;;;;;;7304434;19;20686;-89
2024/01/04 03:11:43;;;;;;;16.20;2.90;;;11.20;99.90;;;;;;7281794;19;20212;-89
2024/01/04 03:14:09;;;;;;;12.47;2.63;;;11.20;99.90;;;;;;7282421;19;20193;-89
2024/01/04 03:16:34;;;;;;;11.50;2.73;;;11.20;99.90;;;;;;7281669;19;20193;-90
2024/01/04 03:19:00;;;;;;;17.03;3.20;;;11.20;99.90;;;;;;7280901;19;20191;-89
2024/01/04 03:21:26;;;;;;;17.37;3.00;;;11.20;99.90;;;;;;7280603;19;20181;-89
2024/01/04 03:23:53;;;;;;;13.43;2.97;;;11.20;99.90;;;;;;7281648;19;20191;-89
2024/01/04 03:26:19;;;;;;;13.70;2.70;;;11.20;99.90;;;;;;7294379;19;20182;-88
2024/01/04 03:28:44;;;;;;;13.30;3.00;;;11.20;99.90;;;;;;7299561;19;20234;-89
2024/01/04 03:31:10;;;;;;;13.57;2.60;;;11.20;99.90;;;;;;7282930;19;20246;-89
2024/01/04 03:33:36;;;;;;;12.93;1.90;;;11.20;99.90;;;;;;7282526;19;20630;-88
2024/01/04 03:36:01;;;;;;;11.23;2.57;;;11.20;99.90;;;;;;7290778;19;20192;-89
2024/01/04 03:38:28;;;;;;;12.23;2.57;;;11.30;99.90;;;;;;7290938;19;20184;-89
2024/01/04 03:40:54;;;;;;;9.43;2.03;;;11.30;99.90;;;;;;7282446;19;20234;-89
2024/01/04 03:43:20;;;;;;;9.50;1.80;;;11.30;99.90;;;;;;7291457;19;20192;-89
2024/01/04 03:45:45;;;;;;;14.43;2.50;;;11.30;99.90;;;;;;7323953;19;20187;-88
2024/01/04 03:48:11;;;;;;;11.63;2.57;;;11.20;99.90;;;;;;7298387;19;20196;-89
2024/01/04 03:50:37;;;;;;;13.33;2.00;;;11.20;99.90;;;;;;7297835;19;20766;-86
2024/01/04 03:53:03;;;;;;;8.73;1.67;;;11.20;99.90;;;;;;7287722;19;20200;-89
2024/01/04 03:55:29;;;;;;;17.60;2.00;;;11.10;99.90;;;;;;7280242;19;20972;-83
2024/01/04 03:57:55;;;;;;;13.43;1.70;;;11.10;99.90;;;;;;7277186;19;20324;-83
2024/01/04 04:00:20;;;;;;;9.53;1.40;;;11.20;99.90;;;;;;7277505;19;20197;-82
2024/01/04 04:02:46;;;;;;;15.30;1.90;;;11.20;99.90;;;;;;7301082;19;20627;-82
2024/01/04 04:05:13;;;;;;;11.80;2.33;;;11.20;99.90;;;;;;7277400;19;20227;-82
2024/01/04 04:07:38;;;;;;;14.53;3.17;;;11.20;99.90;;;;;;7279210;19;20197;-83
2024/01/04 04:10:05;;;;;;;10.67;2.07;;;11.20;99.90;;;;;;7279603;19;20199;-83
2024/01/04 04:12:30;;;;;;;13.93;1.80;;;11.30;99.90;;;;;;7277365;19;20180;-83
2024/01/04 04:14:56;;;;;;;13.27;1.83;;;11.30;99.90;;;;;;7278867;19;20181;-84
2024/01/04 04:17:24;;;;;;;9.87;1.77;;;11.30;99.90;;;;;;7276601;19;20184;-83
2024/01/04 04:19:51;;;;;;;12.00;1.70;;;11.40;99.90;;;;;;7278268;19;20233;-83
2024/01/04 04:22:16;;;;;;;11.60;1.73;;;11.40;99.90;;;;;;7299328;19;20189;-83
2024/01/04 04:24:42;;;;;;;14.07;2.00;;;11.40;99.90;;;;;;7277627;19;20209;-83
2024/01/04 04:27:08;;;;;;;9.53;1.73;;;11.40;99.90;;;;;;7279216;19;20196;-83
2024/01/04 04:29:34;;;;;;;9.73;1.43;;;11.40;99.90;;;;;;7276904;19;20216;-83
2024/01/04 04:32:00;;;;;;;11.00;1.50;;;11.30;99.90;;;;;;7278394;19;20209;-84
2024/01/04 04:34:25;;;;;;;10.40;1.93;;;11.20;99.90;;;;;;7278695;19;20186;-83
2024/01/04 04:36:51;;;;;;;7.97;1.40;;;11.30;99.90;;;;;;7347021;19;20259;-83
2024/01/04 04:39:17;;;;;;;8.80;1.53;;;11.20;99.90;;;;;;7393371;19;20158;-83
2024/01/04 04:41:43;;;;;;;8.40;1.53;;;11.30;99.90;;;;;;7393854;19;20166;-84
2024/01/04 04:44:08;;;;;;;13.00;1.63;;;11.30;99.90;;;;;;7392199;19;20857;-84
2024/01/04 04:46:34;;;;;;;11.03;1.80;;;11.20;99.90;;;;;;7324909;19;20283;-83
2024/01/04 04:49:00;;;;;;;13.60;2.00;;;11.30;99.90;;;;;;7280794;19;20199;-84
2024/01/04 04:51:26;;;;;;;10.57;1.63;;;11.20;99.90;;;;;;7285002;19;20183;-88
2024/01/04 04:53:52;;;;;;;11.97;1.80;;;11.20;99.90;;;;;;7284349;19;20228;-89
2024/01/04 04:56:18;;;;;;;9.67;2.00;;;11.10;99.90;;;;;;7307117;19;20209;-83
2024/01/04 04:58:44;;;;;;;15.83;2.40;;;11.10;99.90;;;;;;7293196;19;20225;-83
2024/01/04 05:01:10;;;;;;;12.90;2.23;;;11.20;99.90;;;;;;7288654;19;20182;-83
2024/01/04 05:03:39;;;;;;;12.10;2.77;;;11.30;99.90;;;;;;7287508;19;20198;-89
2024/01/04 05:06:06;;;;;;;18.23;2.33;;;11.30;99.90;;;;;;7302180;19;20223;-89
2024/01/04 05:08:33;;;;;;;14.00;2.07;;;11.30;99.90;;;;;;7296497;19;20217;-84
2024/01/04 05:10:59;;;;;;;13.20;2.47;;;11.30;99.90;;;;;;7288927;19;20667;-89
2024/01/04 05:13:35;;;;;;;12.53;2.50;;;11.30;99.90;;;;;;7294278;19;20196;-88
2024/01/04 05:16:00;;;;;;;11.00;2.00;;;11.20;99.90;;;;;;7288270;19;20246;-83
2024/01/04 05:18:26;;;;;;;10.87;1.83;;;11.30;99.90;;;;;;7287097;19;20330;-83
2024/01/04 05:21:01;;;;;;;11.27;2.60;;;11.30;99.90;;;;;;7288509;19;20206;-88
2024/01/04 05:23:38;;;;;;;14.77;2.40;;;11.30;99.90;;;;;;7301949;19;20183;-89
2024/01/04 05:26:03;;;;;;;13.00;2.57;;;11.30;99.90;;;;;;7309537;19;20224;-82
2024/01/04 05:28:32;;;;;;;17.13;2.27;;;11.30;99.90;;;;;;7310449;19;20198;-82
2024/01/04 05:30:58;;;;;;;12.07;2.53;;;11.20;99.90;;;;;;7303548;19;20184;-83
2024/01/04 05:33:23;;;;;;;18.07;2.73;;;11.20;99.90;;;;;;7293292;19;20241;-83
2024/01/04 05:35:51;;;;;;;13.17;2.50;;;11.10;99.90;;;;;;7305010;19;21573;-84
2024/01/04 05:38:17;;;;;;;14.40;2.47;;;11.00;99.90;;;;;;7305163;19;20286;-83
2024/01/04 05:40:43;;;;;;;14.10;2.67;;;11.10;99.90;;;;;;7289056;19;20634;-83
2024/01/04 05:43:09;;;;;;;13.40;2.67;;;11.10;99.90;;;;;;7295988;19;20192;-88
2024/01/04 05:45:35;;;;;;;11.30;2.27;;;11.10;99.90;;;;;;7289467;19;20203;-83
2024/01/04 05:48:01;;;;;;;16.73;3.03;;;11.20;99.90;;;;;;7292750;19;20203;-90
2024/01/04 05:50:26;;;;;;;10.70;2.80;;;11.20;99.90;;;;;;7292966;19;20210;-83
2024/01/04 05:52:52;;;;;;;12.30;2.80;;;11.10;99.90;;;;;;7287219;19;20196;-83
2024/01/04 05:55:18;;;;;;;11.50;2.67;;;11.10;99.90;;;;;;7311557;19;20195;-83
2024/01/04 05:57:47;;;;;;;12.57;2.80;;;11.10;99.90;;;;;;7294276;19;20227;-89
2024/01/04 06:00:16;;;;;;;11.63;2.53;;;11.10;99.90;;;;;;7295011;19;20189;-89
2024/01/04 06:02:42;;;;;;;12.07;1.90;;;11.10;99.90;;;;;;7288530;19;20189;-84
2024/01/04 06:05:08;;;;;;;12.93;2.10;;;11.10;99.90;;;;;;7287077;19;20614;-83
2024/01/04 06:07:34;;;;;;;11.80;2.40;;;11.10;99.90;;;;;;7288744;19;20193;-84
2024/01/04 06:10:00;;;;;;;13.43;2.20;;;11.10;99.90;;;;;;7289218;19;20253;-90
2024/01/04 06:12:25;;;;;;;13.93;2.07;;;11.20;99.90;;;;;;7281674;19;20554;-84
2024/01/04 06:15:03;;;;;;;;;;;;;;;;;;;;;
2024/01/04 06:17:31;;;;;;;14.87;2.73;;;11.10;99.90;;;;;;7284631;19;20278;-83
2024/01/04 06:19:56;;;;;;;12.37;2.53;;;11.10;99.90;;;;;;7284344;19;20193;-83
2024/01/04 06:22:22;;;;;;;12.23;2.23;;;11.10;99.90;;;;;;7283624;19;20192;-84
2024/01/04 06:24:48;;;;;;;15.43;2.07;;;11.00;99.90;;;;;;7302995;19;20648;-83
2024/01/04 06:27:14;;;;;;;11.00;2.37;;;11.00;99.90;;;;;;7282956;19;20223;-84
2024/01/04 06:29:40;;;;;;;7.80;2.07;;;11.00;99.90;;;;;;7285996;19;20196;-84
2024/01/04 06:32:08;;;;;;;11.27;1.70;;;10.90;99.90;;;;;;7267846;19;20596;-89
2024/01/04 06:34:34;;;;;;;12.73;2.47;;;10.90;99.90;;;;;;7303650;19;20193;-89
2024/01/04 06:37:05;;;;;;;13.27;2.47;;;10.80;99.90;;;;;;7293264;19;20180;-83
2024/01/04 06:39:31;;;;;;;10.57;2.00;;;10.70;99.90;;;;;;7295975;19;20207;-89
2024/01/04 06:41:58;;;;;;;9.63;2.07;;;10.80;99.90;;;;;;7297688;19;20186;-89
2024/01/04 06:44:32;;;;;;;14.43;2.40;;;10.80;99.90;;;;;;7293829;19;20193;-83
2024/01/04 06:46:58;;;;;;;13.30;2.00;;;10.80;99.90;;;;;;7266012;19;20682;-83
2024/01/04 06:49:25;;;;;;;11.10;1.80;;;10.90;99.90;;;;;;7290025;19;20181;-83
2024/01/04 06:51:51;;;;;;;7.13;1.60;;;10.90;99.90;;;;;;7289737;19;20705;-82
2024/01/04 06:54:16;;;;;;;9.33;1.73;;;10.80;99.90;;;;;;7305704;19;20206;-83
2024/01/04 06:56:58;;;;;;;11.13;1.50;;;10.70;99.90;;;;;;7286632;19;20186;-89
2024/01/04 06:59:24;;;;;;;11.17;1.97;;;10.60;99.90;;;;;;7182194;19;2006031;-83
2024/01/04 07:01:50;;;;;;;8.10;2.17;;;10.40;99.90;;;;;;7292738;19;20190;-83
2024/01/04 07:04:15;;;;;;;17.73;3.30;;;10.40;99.90;;;;;;7309876;19;20261;-83
2024/01/04 07:06:41;;;;;;;15.77;2.90;;;10.40;99.90;;;;;;7284780;19;20357;-89
2024/01/04 07:09:07;;;;;;;17.60;2.97;;;10.30;99.90;;;;;;7282344;19;20201;-89
2024/01/04 07:11:33;;;;;;;21.97;3.27;;;10.30;99.90;;;;;;7280820;19;20204;-90
2024/01/04 07:13:58;;;;;;;16.30;3.20;;;10.30;99.90;;;;;;7284215;19;20198;-88
2024/01/04 07:16:29;;;;;;;18.93;3.67;;;10.30;99.90;;;;;;7295846;19;20557;-82
2024/01/04 07:18:55;;;;;;;16.57;3.80;;;10.30;99.90;;;;;;7291486;19;20191;-89
2024/01/04 07:21:23;;;;;;;21.00;3.87;;;10.30;99.90;;;;;;7288005;19;20189;-88
2024/01/04 07:23:52;;;;;;;27.33;4.50;;;10.40;99.90;;;;;;7294952;19;20183;-88
2024/01/04 07:26:21;;;;;;;23.77;4.27;;;10.40;99.90;;;;;;7317729;19;20186;-89
2024/01/04 07:28:50;;;;;;;16.90;3.77;;;10.40;99.90;;;;;;7291085;19;20195;-83
2024/01/04 07:31:16;;;;;;;22.33;4.37;;;10.50;99.90;;;;;;7288508;19;20195;-82
2024/01/04 07:33:42;;;;;;;17.20;3.80;;;10.50;99.90;;;;;;7284765;19;20222;-84
2024/01/04 07:36:14;;;;;;;21.00;4.37;;;10.40;99.90;;;;;;7287970;19;20208;-85
2024/01/04 07:38:41;;;;;;;18.03;4.53;;;10.40;99.90;;;;;;7278519;19;20190;-84
2024/01/04 07:41:07;;;;;;;30.00;4.70;;;10.50;99.90;;;;;;7278143;19;20246;-85
2024/01/04 07:43:33;;;;;;;29.43;4.87;;;10.30;99.90;;;;;;7287127;19;20192;-85
2024/01/04 07:45:59;;;;;;;22.67;3.80;;;10.30;99.90;;;;;;7282148;19;20201;-90
2024/01/04 07:48:25;;;;;;;24.63;4.90;;;10.30;99.90;;;;;;7286470;19;20196;-84
2024/01/04 07:50:52;;;;;;;28.57;3.80;;;10.30;99.90;;;;;;7280294;19;20193;-84
2024/01/04 07:53:21;;;;;;;36.37;3.87;;;10.30;99.90;;;;;;7307500;19;20227;-85
2024/01/04 07:55:46;;;;;;;27.53;3.73;;;10.40;99.90;;;;;;7276263;19;20246;-85
2024/01/04 07:58:12;;;;;;;26.43;3.27;;;10.50;99.90;;;;;;7280933;19;20190;-85
2024/01/04 08:00:41;;;;;;;24.73;3.67;;;10.40;99.90;;;;;;7288674;19;20330;-90
2024/01/04 08:03:10;;;;;;;27.23;3.03;;;10.40;99.90;;;;;;7291556;19;20206;-90
2024/01/04 08:05:36;;;;;;;31.10;3.80;;;10.40;99.90;;;;;;7284834;19;20191;-90
2024/01/04 08:08:02;;;;;;;28.70;3.73;;;10.40;99.90;;;;;;7288566;19;20680;-91
2024/01/04 08:10:28;;;;;;;26.97;3.77;;;10.40;99.90;;;;;;7290792;19;20262;-85
2024/01/04 08:12:54;;;;;;;28.17;4.20;;;10.30;99.90;;;;;;7286296;19;20233;-85
2024/01/04 08:15:20;;;;;;;20.70;3.37;;;10.20;99.90;;;;;;7295744;19;20191;-85
2024/01/04 08:17:49;;;;;;;27.57;4.30;;;10.10;99.90;;;;;;7318917;19;20202;-86
2024/01/04 08:20:15;;;;;;;30.73;4.13;;;10.20;99.90;;;;;;7298356;19;20182;-85
2024/01/04 08:22:41;;;;;;;32.87;4.00;;;10.10;99.90;;;;;;7288592;19;20197;-90
2024/01/04 08:25:08;;;;;;;32.90;5.10;;;10.20;99.90;;;;;;7291782;19;20661;-90
2024/01/04 08:27:33;;;;;;;30.53;5.10;;;10.20;99.90;;;;;;7290297;19;20709;-85
2024/01/04 08:30:02;;;;;;;31.77;4.30;;;10.10;99.90;;;;;;7286220;19;20250;-86
2024/01/04 08:32:31;;;;;;;30.83;4.90;;;10.10;99.90;;;;;;7290489;19;20190;-85
2024/01/04 08:35:00;;;;;;;33.80;4.47;;;10.10;99.90;;;;;;7291478;19;20197;-90
2024/01/04 08:37:25;;;;;;;29.43;4.47;;;10.20;99.90;;;;;;7287160;19;20183;-89
2024/01/04 08:39:52;;;;;;;33.23;4.93;;;10.40;99.90;;;;;;7288011;19;20187;-89
2024/01/04 08:42:18;;;;;;;33.73;4.33;;;10.30;99.90;;;;;;7308290;19;20193;-89
2024/01/04 08:44:44;;;;;;;28.63;4.17;;;10.30;99.90;;;;;;7289184;19;20190;-91
2024/01/04 08:47:10;;;;;;;32.73;4.63;;;10.30;99.90;;;;;;7294993;19;20190;-86
2024/01/04 08:49:39;;;;;;;35.90;4.53;;;10.40;99.90;;;;;;7290481;19;20187;-89
2024/01/04 08:52:08;;;;;;;30.60;4.10;;;10.40;99.90;;;;;;7286013;19;20187;-86
2024/01/04 08:54:34;;;;;;;32.20;4.40;;;10.50;99.90;;;;;;7286069;19;20191;-89
2024/01/04 08:56:59;;;;;;;29.93;4.27;;;10.60;99.90;;;;;;7285034;19;20698;-90
2024/01/04 08:59:25;;;;;;;31.47;4.20;;;10.70;99.90;;;;;;7288276;19;20228;-89
2024/01/04 09:01:51;;;;;;;23.33;3.90;;;10.60;99.90;;;;;;7293293;19;20194;-85
2024/01/04 09:04:19;;;;;;;29.37;4.23;;;10.60;99.90;;;;;;7305127;19;20687;-86
2024/01/04 09:06:44;;;;;;;26.60;4.20;;;10.60;99.90;;;;;;7285663;19;20215;-86
2024/01/04 09:09:10;;;;;;;27.13;3.87;;;10.60;99.90;;;;;;7285784;19;20187;-86
2024/01/04 09:11:41;;;;;;;24.97;4.27;;;10.70;99.90;;;;;;7291844;19;20210;-90
2024/01/04 09:14:11;;;;;;;25.60;4.43;;;10.80;99.90;;;;;;7292378;19;20202;-86
2024/01/04 09:16:45;;;;;;;26.57;4.17;;;10.60;99.90;;;;;;7296019;19;20198;-88
2024/01/04 09:19:15;;;;;;;25.70;3.60;;;10.50;99.90;;;;;;7286741;19;20204;-86
2024/01/04 09:21:46;;;;;;;22.13;4.07;;;10.60;99.90;;;;;;7283674;19;20194;-86
2024/01/04 09:24:12;;;;;;;28.27;3.73;;;10.50;99.90;;;;;;7283311;19;20209;-86
2024/01/04 09:26:41;;;;;;;28.70;3.67;;;10.60;99.90;;;;;;7282263;19;20608;-86
2024/01/04 09:29:12;;;;;;;23.07;3.53;;;10.50;99.90;;;;;;7284816;19;20666;-86
2024/01/04 09:31:38;;;;;;;24.13;3.37;;;10.60;99.90;;;;;;7291948;19;20281;-85
2024/01/04 09:34:12;;;;;;;24.23;3.67;;;10.60;99.90;;;;;;7284180;19;20661;-86
2024/01/04 09:36:43;;;;;;;35.63;4.27;;;10.70;99.90;;;;;;7285951;19;20195;-89
2024/01/04 09:39:17;;;;;;;30.43;4.67;;;10.80;99.90;;;;;;7293504;19;20681;-88
2024/01/04 09:41:50;;;;;;;22.50;3.87;;;10.70;99.90;;;;;;7294860;19;20682;-90
2024/01/04 09:44:16;;;;;;;25.43;3.40;;;10.60;99.90;;;;;;7294989;19;20622;-85
2024/01/04 09:46:42;;;;;;;22.87;3.40;;;10.60;99.90;;;;;;7291801;19;20192;-89
2024/01/04 09:49:11;;;;;;;27.60;4.10;;;10.60;99.90;;;;;;7293866;19;20191;-89
2024/01/04 09:51:38;;;;;;;19.53;3.30;;;10.60;99.90;;;;;;7287510;19;20186;-86
2024/01/04 09:54:09;;;;;;;21.33;3.33;;;10.60;99.90;;;;;;7282720;19;20222;-86
2024/01/04 09:56:50;;;;;;;21.03;2.90;;;10.50;99.90;;;;;;7284138;19;20191;-89
2024/01/04 09:59:16;;;;;;;27.10;3.20;;;10.60;99.90;;;;;;7285662;19;20201;-86
2024/01/04 10:01:43;;;;;;;27.47;3.60;;;10.60;99.90;;;;;;7286033;19;20202;-86
2024/01/04 10:04:14;;;;;;;26.30;3.27;;;10.60;99.90;;;;;;7288925;19;20264;-90
2024/01/04 10:06:42;;;;;;;27.10;2.87;;;10.70;99.90;;;;;;7288052;19;20192;-89
2024/01/04 10:09:44;;;;;;;27.60;3.70;;;10.80;99.90;;;;;;7289104;19;20203;-86
2024/01/04 10:12:12;;;;;;;27.30;4.03;;;10.80;99.90;;;;;;7183811;19;2004457;-88
2024/01/04 10:14:38;;;;;;;17.43;3.17;;;10.90;99.90;;;;;;7290513;19;20195;-90
2024/01/04 10:17:05;;;;;;;18.87;3.27;;;10.90;99.90;;;;;;7286090;19;20191;-86
2024/01/04 10:19:32;;;;;;;22.10;3.47;;;10.90;99.90;;;;;;7287752;19;20195;-86
2024/01/04 10:22:08;;;;;;;29.30;4.00;;;11.00;99.90;;;;;;7287400;19;20269;-86
2024/01/04 10:24:38;;;;;;;20.50;2.83;;;11.10;99.90;;;;;;7289736;19;20199;-90
2024/01/04 10:27:05;;;;;;;22.10;3.50;;;11.20;99.90;;;;;;7287647;19;20204;-85
2024/01/04 10:29:41;;;;;;;26.10;3.33;;;11.40;99.90;;;;;;7290463;19;20207;-89
2024/01/04 10:32:13;;;;;;;21.60;3.67;;;11.70;99.90;;;;;;7285763;19;20189;-88
2024/01/04 10:34:40;;;;;;;21.83;3.33;;;11.90;99.90;;;;;;7291793;19;20198;-89
2024/01/04 10:37:12;;;;;;;25.53;3.70;;;12.30;99.90;;;;;;7289676;19;20185;-88
2024/01/04 10:39:45;;;;;;;25.63;3.60;;;12.40;99.90;;;;;;7287021;19;20185;-88
2024/01/04 10:42:13;;;;;;;19.70;3.17;;;12.50;99.90;;;;;;7290790;19;20227;-89
2024/01/04 10:44:43;;;;;;;25.33;3.80;;;12.60;99.90;;;;;;7285248;19;20252;-89
2024/01/04 10:47:10;;;;;;;17.53;3.30;;;12.70;99.90;;;;;;7281963;19;20214;-85
2024/01/04 10:49:41;;;;;;;17.77;3.10;;;12.80;99.90;;;;;;7283858;19;20197;-89
2024/01/04 10:52:13;;;;;;;22.83;3.43;;;12.60;99.90;;;;;;7281132;19;20637;-85
2024/01/04 10:54:41;;;;;;;19.77;3.23;;;12.50;99.90;;;;;;7284330;19;20534;-85
2024/01/04 10:57:08;;;;;;;21.53;3.47;;;12.30;99.90;;;;;;7286140;19;20192;-86
2024/01/04 10:59:34;;;;;;;23.73;3.70;;;12.20;99.90;;;;;;7286811;19;20201;-85
2024/01/04 11:02:01;;;;;;;19.73;3.20;;;12.50;99.90;;;;;;7297693;19;20197;-89
2024/01/04 11:04:36;;;;;;;19.57;3.53;;;12.80;99.90;;;;;;7301969;19;20189;-88
2024/01/04 11:07:03;;;;;;;15.67;3.70;;;13.10;99.90;;;;;;7302887;19;20191;-86
2024/01/04 11:09:31;;;;;;;18.43;3.20;;;13.80;99.90;;;;;;7283837;19;20202;-85
2024/01/04 11:11:58;;;;;;;15.80;3.10;;;13.90;99.90;;;;;;7282672;19;20194;-84
2024/01/04 11:14:25;;;;;;;18.17;3.47;;;14.30;99.90;;;;;;7281512;19;20186;-89
2024/01/04 11:17:09;;;;;;;21.87;3.37;;;14.40;99.90;;;;;;7291299;19;20179;-85
2024/01/04 11:20:13;;;;;;;17.13;2.60;;;14.40;99.90;;;;;;7289635;19;20799;-85
2024/01/04 11:23:13;;;;;;;18.90;3.30;;;14.50;99.90;;;;;;7180232;19;2004433;-85
2024/01/04 11:25:58;;;;;;;18.50;3.20;;;14.70;99.90;;;;;;7184077;19;2004787;-88
2024/01/04 11:28:27;;;;;;;21.73;3.13;;;14.80;99.90;;;;;;7266863;19;20195;-85
2024/01/04 11:30:53;;;;;;;19.17;3.20;;;14.80;99.90;;;;;;7282228;19;20197;-85
2024/01/04 11:33:21;;;;;;;19.03;3.53;;;14.50;99.90;;;;;;7301846;19;20223;-86
2024/01/04 11:35:50;;;;;;;23.67;3.47;;;15.00;99.90;;;;;;7308477;19;20580;-88
2024/01/04 11:38:26;;;;;;;18.00;3.10;;;15.30;99.90;;;;;;7286440;19;20194;-85
2024/01/04 11:40:57;;;;;;;18.17;3.33;;;15.90;99.90;;;;;;7266634;19;20200;-90
2024/01/04 11:43:37;;;;;;;17.83;3.33;;;16.00;99.90;;;;;;7283878;19;20196;-86
2024/01/04 11:46:18;;;;;;;17.37;3.17;;;16.10;99.90;;;;;;7281635;19;20625;-86
2024/01/04 11:49:04;;;;;;;16.70;3.03;;;16.10;99.90;;;;;;7280706;19;20670;-86
2024/01/04 11:51:40;;;;;;;18.90;3.10;;;16.00;99.90;;;;;;7179569;19;2006085;-87
2024/01/04 11:54:08;;;;;;;18.33;3.33;;;16.00;99.90;;;;;;7278097;19;20233;-86
2024/01/04 11:56:34;;;;;;;17.67;3.27;;;16.20;99.90;;;;;;7278806;19;20184;-86
2024/01/04 11:59:32;;;;;;;20.90;3.07;;;15.80;99.90;;;;;;7279818;19;20186;-86
2024/01/04 12:02:21;;;;;;;22.47;3.43;;;15.30;99.90;;;;;;7181060;19;2005012;-86
2024/01/04 12:04:49;;;;;;;22.87;4.00;;;15.20;99.90;;;;;;7280338;19;20256;-86
2024/01/04 12:07:15;;;;;;;21.07;3.30;;;15.10;99.90;;;;;;7282592;19;20662;-86
2024/01/04 12:09:42;;;;;;;22.77;3.77;;;15.10;99.90;;;;;;7283408;19;20181;-88
2024/01/04 12:12:08;;;;;;;19.10;3.63;;;15.10;99.90;;;;;;7287212;19;20207;-89
2024/01/04 12:14:35;;;;;;;24.97;4.03;;;14.80;99.90;;;;;;7284924;19;20606;-86
2024/01/04 12:17:01;;;;;;;22.03;3.37;;;14.70;99.90;;;;;;7288265;19;20189;-90
2024/01/04 12:19:27;;;;;;;23.27;3.50;;;14.40;99.90;;;;;;7285612;19;20200;-88
2024/01/04 12:21:54;;;;;;;21.37;4.27;;;14.10;99.90;;;;;;7289984;19;20710;-85
2024/01/04 12:24:21;;;;;;;18.97;4.10;;;14.10;99.90;;;;;;7303490;19;20190;-87
2024/01/04 12:26:47;;;;;;;17.63;3.73;;;14.10;99.90;;;;;;7308406;19;20189;-87
2024/01/04 12:29:20;;;;;;;16.87;3.43;;;14.40;99.90;;;;;;7300679;19;20195;-86
2024/01/04 12:31:57;;;;;;;16.77;2.77;;;14.80;99.90;;;;;;7292078;19;20205;-89
2024/01/04 12:34:26;;;;;;;16.43;3.17;;;15.00;99.90;;;;;;7266206;19;20201;-89
2024/01/04 12:37:06;;;;;;;18.83;3.40;;;15.20;99.90;;;;;;7283991;19;20185;-89
2024/01/04 12:39:38;;;;;;;16.90;2.87;;;15.10;99.90;;;;;;7285534;19;20563;-86
2024/01/04 12:42:04;;;;;;;15.70;2.90;;;15.30;99.90;;;;;;7284809;19;20201;-89